Time;durP1;ratioP1;P1;durP2;ratioP2;P2;SDS_P1;SDS_P2;PMS_P1;PMS_P2;Temp;Humidity;BMP_temperature;BMP_pressure;BME280_temperature;BME280_humidity;BME280_pressure;Samples;Min_cycle;Max_cycle;Signal;HPM_P1;HPM_P2
2022/05/15 00:02:36;;;;;;;23.20;4.82;;;10.00;99.90;;;;;;5066223;28;20100;-64
2022/05/15 00:05:03;;;;;;;30.88;5.82;;;9.90;99.90;;;;;;5086416;28;20127;-57
2022/05/15 00:07:28;;;;;;;22.13;4.95;;;9.80;99.90;;;;;;5067943;28;20046;-58
2022/05/15 00:09:54;;;;;;;26.67;5.28;;;9.80;99.90;;;;;;5068471;28;20048;-67
2022/05/15 00:12:21;;;;;;;21.98;5.63;;;9.80;99.90;;;;;;5068054;28;20040;-56
2022/05/15 00:14:48;;;;;;;28.88;5.15;;;9.80;99.90;;;;;;5068551;28;20052;-64
2022/05/15 00:17:15;;;;;;;22.15;5.45;;;9.70;99.90;;;;;;5063709;28;20040;-56
2022/05/15 00:19:41;;;;;;;25.42;5.65;;;9.70;99.90;;;;;;5045519;28;20507;-55
2022/05/15 00:22:08;;;;;;;21.98;5.15;;;9.60;99.90;;;;;;5043784;28;20040;-58
2022/05/15 00:24:34;;;;;;;22.83;5.47;;;9.60;99.90;;;;;;5044600;28;20401;-56
2022/05/15 00:27:00;;;;;;;22.33;4.97;;;9.50;99.90;;;;;;5044267;28;20044;-57
2022/05/15 00:29:26;;;;;;;25.63;5.45;;;9.50;99.90;;;;;;5037122;28;20049;-62
2022/05/15 00:31:52;;;;;;;23.17;5.18;;;9.40;99.90;;;;;;5044088;28;20044;-56
2022/05/15 00:34:18;;;;;;;25.52;5.50;;;9.40;99.90;;;;;;5042785;28;20120;-60
2022/05/15 00:36:43;;;;;;;35.50;6.68;;;9.30;99.90;;;;;;5044700;28;20132;-58
2022/05/15 00:39:09;;;;;;;23.55;6.38;;;9.30;99.90;;;;;;5043949;28;20041;-57
2022/05/15 00:41:37;;;;;;;23.20;5.55;;;9.30;99.90;;;;;;5028110;28;20041;-58
2022/05/15 00:44:04;;;;;;;28.92;5.72;;;9.20;99.90;;;;;;5045615;28;20057;-62
2022/05/15 00:46:36;;;;;;;29.92;6.57;;;9.20;99.90;;;;;;5044247;28;20033;-61
2022/05/15 00:49:13;;;;;;;27.40;6.45;;;9.20;99.90;;;;;;5061296;28;20514;-57
2022/05/15 00:51:53;;;;;;;25.40;5.93;;;9.20;99.90;;;;;;5045559;28;20064;-63
2022/05/15 00:54:28;;;;;;;25.02;5.30;;;9.20;99.90;;;;;;5048096;28;20638;-61
2022/05/15 00:57:24;;;;;;;17.98;4.93;;;9.10;99.90;;;;;;5064560;28;20049;-55
2022/05/15 01:00:13;;;;;;;26.15;5.57;;;9.00;99.90;;;;;;5031120;28;20094;-64
2022/05/15 01:02:51;;;;;;;21.20;4.97;;;9.00;99.90;;;;;;5048260;28;20210;-64
2022/05/15 01:05:18;;;;;;;25.83;5.32;;;9.00;99.90;;;;;;5047678;28;20049;-61
2022/05/15 01:07:44;;;;;;;24.50;5.57;;;8.90;99.90;;;;;;5047491;28;20104;-56
2022/05/15 01:10:11;;;;;;;21.15;5.25;;;8.90;99.90;;;;;;5047750;28;20044;-63
2022/05/15 01:12:40;;;;;;;20.65;4.75;;;8.90;99.90;;;;;;5048144;28;20787;-57
2022/05/15 01:15:10;;;;;;;27.60;5.38;;;8.80;99.90;;;;;;5048332;28;20457;-61
2022/05/15 01:17:35;;;;;;;17.60;4.60;;;8.80;99.90;;;;;;5065817;28;20052;-57
2022/05/15 01:20:06;;;;;;;21.27;5.03;;;8.80;99.90;;;;;;5084886;28;20481;-61
2022/05/15 01:22:32;;;;;;;24.20;5.28;;;8.70;99.90;;;;;;5068265;28;20049;-60
2022/05/15 01:24:58;;;;;;;21.80;5.15;;;8.70;99.90;;;;;;5070012;28;20140;-58
2022/05/15 01:27:24;;;;;;;23.50;5.30;;;8.70;99.90;;;;;;5047703;28;20037;-57
2022/05/15 01:29:50;;;;;;;19.17;4.78;;;8.60;99.90;;;;;;5047481;28;20095;-63
2022/05/15 01:32:16;;;;;;;17.80;4.28;;;8.60;99.90;;;;;;5060032;28;20055;-56
2022/05/15 01:34:42;;;;;;;18.15;4.53;;;8.50;99.90;;;;;;5066960;28;20090;-58
2022/05/15 01:37:08;;;;;;;21.23;4.88;;;8.50;99.90;;;;;;5067654;28;20473;-56
2022/05/15 01:39:35;;;;;;;26.38;4.85;;;8.50;99.90;;;;;;5068689;28;20513;-58
2022/05/15 01:42:02;;;;;;;20.65;4.25;;;8.40;99.90;;;;;;5067896;28;20041;-57
2022/05/15 01:44:30;;;;;;;17.42;4.75;;;8.50;99.90;;;;;;5067999;28;20056;-57
2022/05/15 01:46:56;;;;;;;16.85;5.03;;;8.40;99.90;;;;;;5067000;28;20552;-55
2022/05/15 01:49:21;;;;;;;22.75;5.38;;;8.50;99.90;;;;;;5067245;28;20056;-65
2022/05/15 01:51:47;;;;;;;18.75;4.10;;;8.40;99.90;;;;;;5066969;28;20071;-61
2022/05/15 01:54:13;;;;;;;20.60;5.22;;;8.40;99.90;;;;;;5050748;28;20044;-61
2022/05/15 01:56:39;;;;;;;18.15;3.92;;;8.30;99.90;;;;;;5046878;28;20037;-61
2022/05/15 01:59:06;;;;;;;22.23;5.07;;;8.20;99.90;;;;;;5047037;28;20037;-63
2022/05/15 02:01:32;;;;;;;20.88;4.63;;;8.20;99.90;;;;;;5053563;28;20057;-58
2022/05/15 02:03:58;;;;;;;19.77;4.32;;;8.20;99.90;;;;;;5068445;28;20410;-61
2022/05/15 02:06:24;;;;;;;20.75;4.75;;;8.20;99.90;;;;;;5066515;28;20048;-58
2022/05/15 02:08:49;;;;;;;22.20;5.00;;;8.20;99.90;;;;;;5066576;28;20052;-64
2022/05/15 02:11:15;;;;;;;27.23;4.70;;;8.20;99.90;;;;;;5067032;28;20041;-60
2022/05/15 02:13:42;;;;;;;23.25;4.93;;;8.20;99.90;;;;;;5066876;28;20060;-62
2022/05/15 02:16:08;;;;;;;26.25;4.95;;;8.20;99.90;;;;;;5066221;28;20357;-58
2022/05/15 02:18:34;;;;;;;22.27;4.00;;;8.30;99.90;;;;;;5050009;28;20632;-67
2022/05/15 02:21:00;;;;;;;17.92;3.83;;;8.30;99.90;;;;;;5083722;28;20040;-58
2022/05/15 02:23:26;;;;;;;21.08;5.22;;;8.30;99.90;;;;;;5066484;28;20029;-67
2022/05/15 02:25:53;;;;;;;14.13;4.03;;;8.20;99.90;;;;;;5083203;28;20128;-67
2022/05/15 02:28:19;;;;;;;16.70;4.38;;;8.20;99.90;;;;;;5066694;28;20462;-59
2022/05/15 02:30:47;;;;;;;19.42;4.70;;;8.20;99.90;;;;;;5082818;28;20046;-61
2022/05/15 02:33:13;;;;;;;12.85;4.05;;;8.20;99.90;;;;;;5063312;28;20079;-65
2022/05/15 02:35:38;;;;;;;18.65;4.40;;;8.20;99.90;;;;;;5047831;28;20084;-60
2022/05/15 02:38:05;;;;;;;15.98;3.97;;;8.10;99.90;;;;;;5038771;28;20044;-58
2022/05/15 02:40:31;;;;;;;16.73;3.72;;;8.10;99.90;;;;;;5045930;28;20053;-57
2022/05/15 02:42:57;;;;;;;15.77;4.63;;;8.10;99.90;;;;;;5046506;28;20162;-57
2022/05/15 02:45:24;;;;;;;20.88;5.43;;;8.10;99.90;;;;;;5029383;28;20128;-62
2022/05/15 02:47:50;;;;;;;16.67;4.45;;;8.00;99.90;;;;;;5035759;28;20048;-68
2022/05/15 02:53:01;;;;;;;18.20;4.70;;;8.00;99.90;;;;;;5052385;28;20048;-57
2022/05/15 02:55:27;;;;;;;13.93;3.40;;;7.90;99.90;;;;;;5065997;28;20498;-58
2022/05/15 02:57:53;;;;;;;8.38;2.83;;;7.90;99.90;;;;;;5065536;28;20425;-57
2022/05/15 03:00:23;;;;;;;23.90;4.72;;;7.90;99.90;;;;;;5065726;28;20052;-62
2022/05/15 03:02:48;;;;;;;19.23;4.53;;;7.90;99.90;;;;;;5062931;28;20053;-60
2022/05/15 03:05:16;;;;;;;14.32;3.80;;;7.80;99.90;;;;;;5045603;28;20422;-64
2022/05/15 03:07:43;;;;;;;12.95;4.50;;;7.80;99.90;;;;;;5046671;28;20137;-56
2022/05/15 03:10:11;;;;;;;21.67;5.57;;;7.80;99.90;;;;;;5029086;28;20048;-60
2022/05/15 03:12:37;;;;;;;17.00;4.95;;;7.80;99.90;;;;;;5046152;28;20184;-59
2022/05/15 03:15:05;;;;;;;22.67;4.63;;;7.80;99.90;;;;;;5045161;28;20052;-56
2022/05/15 03:17:32;;;;;;;18.90;4.68;;;7.80;99.90;;;;;;5045144;28;20057;-58
2022/05/15 03:19:58;;;;;;;23.23;4.50;;;7.80;99.90;;;;;;5056829;28;20055;-66
2022/05/15 03:22:24;;;;;;;16.25;4.15;;;7.80;99.90;;;;;;5081225;28;20041;-63
2022/05/15 03:24:49;;;;;;;24.65;5.38;;;7.80;99.90;;;;;;5066194;28;20056;-64
2022/05/15 03:27:16;;;;;;;13.50;3.97;;;7.80;99.90;;;;;;5064570;28;20048;-57
2022/05/15 03:29:42;;;;;;;15.95;3.55;;;7.70;99.90;;;;;;5078802;28;20055;-59
2022/05/15 03:32:08;;;;;;;17.85;4.25;;;7.70;99.90;;;;;;5057876;28;20052;-61
2022/05/15 03:34:34;;;;;;;22.27;4.32;;;7.70;99.90;;;;;;5065169;28;20075;-63
2022/05/15 03:37:00;;;;;;;19.10;4.68;;;7.70;99.90;;;;;;5049126;28;20487;-56
2022/05/15 03:39:26;;;;;;;12.82;3.28;;;7.70;99.90;;;;;;5064460;28;20533;-63
2022/05/15 03:41:52;;;;;;;9.45;2.92;;;7.70;99.90;;;;;;5065074;28;20135;-62
2022/05/15 03:44:18;;;;;;;13.07;3.15;;;7.60;99.90;;;;;;5064170;28;20095;-68
2022/05/15 03:46:44;;;;;;;10.23;2.67;;;7.60;99.90;;;;;;5049254;28;20050;-60
2022/05/15 03:49:13;;;;;;;15.65;3.38;;;7.60;99.90;;;;;;5065010;28;20056;-58
2022/05/15 03:51:39;;;;;;;12.77;3.22;;;7.60;99.90;;;;;;5061415;28;20084;-60
2022/05/15 03:54:05;;;;;;;12.57;2.95;;;7.60;99.90;;;;;;5045360;28;20138;-65
2022/05/15 03:56:52;;;;;;;12.90;3.10;;;7.60;99.90;;;;;;5044569;28;20040;-61
2022/05/15 03:59:23;;;;;;;17.92;4.10;;;7.60;99.90;;;;;;5045148;28;20435;-56
2022/05/15 04:01:50;;;;;;;15.07;3.85;;;7.60;99.90;;;;;;5038258;28;20075;-58
2022/05/15 04:04:16;;;;;;;17.65;4.20;;;7.60;99.90;;;;;;5065365;28;20520;-59
2022/05/15 04:06:42;;;;;;;19.85;4.60;;;7.60;99.90;;;;;;5064357;28;20179;-64
2022/05/15 04:09:08;;;;;;;19.10;5.65;;;7.60;99.90;;;;;;5064506;28;20127;-56
2022/05/15 04:11:34;;;;;;;16.40;3.63;;;7.50;99.90;;;;;;5047513;28;20049;-66
2022/05/15 04:14:00;;;;;;;21.88;4.57;;;7.50;99.90;;;;;;5064683;28;20045;-59
2022/05/15 04:16:26;;;;;;;20.02;3.83;;;7.40;99.90;;;;;;5081443;28;20064;-59
2022/05/15 04:18:52;;;;;;;13.90;3.67;;;7.30;99.90;;;;;;5047928;28;20060;-58
2022/05/15 04:21:18;;;;;;;17.55;3.65;;;7.30;99.90;;;;;;5047448;28;20407;-64
2022/05/15 04:23:44;;;;;;;19.83;4.60;;;7.30;99.90;;;;;;5064650;28;20047;-58
2022/05/15 04:26:09;;;;;;;17.55;3.63;;;7.30;99.90;;;;;;5064574;28;20056;-67
2022/05/15 04:28:36;;;;;;;20.60;4.70;;;7.40;99.90;;;;;;5063161;28;20044;-64
2022/05/15 04:31:02;;;;;;;25.80;5.90;;;7.40;99.90;;;;;;5046665;28;20395;-65
2022/05/15 04:33:28;;;;;;;21.58;5.07;;;7.50;99.90;;;;;;5081603;28;20135;-61
2022/05/15 04:35:55;;;;;;;32.97;5.47;;;7.60;99.90;;;;;;5047654;28;20072;-63
2022/05/15 04:38:20;;;;;;;24.85;5.22;;;7.70;99.90;;;;;;5064654;28;20041;-60
2022/05/15 04:40:46;;;;;;;21.92;5.10;;;7.80;99.90;;;;;;5078928;28;20039;-58
2022/05/15 04:43:12;;;;;;;18.50;5.03;;;7.90;99.90;;;;;;5064746;28;20037;-56
2022/05/15 04:45:37;;;;;;;25.45;5.72;;;8.00;99.90;;;;;;5063742;28;20053;-67
2022/05/15 04:48:03;;;;;;;22.13;5.10;;;8.10;99.90;;;;;;5064416;28;20047;-62
2022/05/15 04:50:29;;;;;;;25.80;5.85;;;8.40;99.90;;;;;;5063789;28;20059;-61
2022/05/15 04:52:55;;;;;;;21.65;5.72;;;8.60;99.90;;;;;;5064189;28;20371;-59
2022/05/15 04:55:21;;;;;;;18.55;4.72;;;8.70;99.90;;;;;;5065258;28;20044;-55
2022/05/15 04:57:46;;;;;;;20.73;4.60;;;8.80;99.90;;;;;;5072201;28;20090;-62
2022/05/15 05:00:17;;;;;;;18.42;4.82;;;9.00;99.90;;;;;;5045330;28;20045;-57
2022/05/15 05:02:43;;;;;;;20.42;4.55;;;9.10;99.90;;;;;;5060101;28;20449;-62
2022/05/15 05:05:09;;;;;;;26.65;5.38;;;9.30;99.90;;;;;;5064366;28;20049;-58
2022/05/15 05:07:35;;;;;;;31.27;5.63;;;9.50;99.90;;;;;;5047190;28;20041;-56
2022/05/15 05:10:01;;;;;;;34.67;6.30;;;9.60;99.90;;;;;;5047456;28;20110;-62
2022/05/15 05:12:27;;;;;;;31.30;6.15;;;9.90;99.90;;;;;;5065148;28;20062;-58
2022/05/15 05:14:52;;;;;;;24.98;5.30;;;10.10;99.90;;;;;;5065350;28;20040;-60
2022/05/15 05:17:18;;;;;;;36.22;6.72;;;10.30;99.90;;;;;;5064504;28;20061;-63
2022/05/15 05:19:44;;;;;;;32.15;5.93;;;10.50;99.90;;;;;;5063204;28;20509;-60
2022/05/15 05:22:10;;;;;;;26.42;6.00;;;10.60;99.90;;;;;;5064055;28;20492;-63
2022/05/15 05:24:35;;;;;;;41.03;7.60;;;10.70;99.90;;;;;;5063460;28;20049;-58
2022/05/15 05:27:01;;;;;;;32.13;5.57;;;10.90;99.90;;;;;;5064022;28;20472;-56
2022/05/15 05:29:27;;;;;;;35.08;6.43;;;11.00;99.90;;;;;;5063753;28;20088;-60
2022/05/15 05:31:53;;;;;;;38.20;6.18;;;11.10;99.90;;;;;;5061934;28;20045;-58
2022/05/15 05:34:19;;;;;;;31.05;5.57;;;11.20;99.90;;;;;;5064238;28;20055;-63
2022/05/15 05:36:45;;;;;;;38.33;5.82;;;11.30;99.90;;;;;;5046416;28;20059;-60
2022/05/15 05:39:11;;;;;;;30.67;5.65;;;11.30;99.90;;;;;;5067663;28;20123;-61
2022/05/15 05:41:36;;;;;;;24.90;5.57;;;11.40;99.90;;;;;;5050746;28;20479;-55
2022/05/15 05:44:03;;;;;;;29.98;6.93;;;11.40;99.90;;;;;;5067069;28;20072;-56
2022/05/15 05:46:29;;;;;;;24.20;6.05;;;11.50;99.90;;;;;;5066948;28;20048;-60
2022/05/15 05:48:57;;;;;;;32.78;6.00;;;11.60;99.90;;;;;;5066973;28;20475;-59
2022/05/15 05:51:22;;;;;;;33.15;5.93;;;11.60;99.90;;;;;;5067427;28;20088;-56
2022/05/15 05:53:54;;;;;;;32.20;6.13;;;11.70;99.90;;;;;;5066694;28;20055;-59
2022/05/15 05:56:20;;;;;;;24.58;5.93;;;11.80;99.90;;;;;;5069340;28;20040;-61
2022/05/15 05:58:45;;;;;;;39.78;9.32;;;11.80;99.90;;;;;;5066308;28;20080;-54
2022/05/15 06:01:11;;;;;;;27.00;5.07;;;11.90;99.90;;;;;;5067420;28;20071;-54
2022/05/15 06:06:21;;;;;;;23.33;5.45;;;12.00;99.90;;;;;;5066971;28;20509;-63
2022/05/15 06:08:52;;;;;;;30.35;5.47;;;12.00;99.90;;;;;;5067636;28;20090;-60
2022/05/15 06:11:18;;;;;;;25.88;6.32;;;12.00;99.90;;;;;;5049246;28;20044;-66
2022/05/15 06:13:43;;;;;;;27.83;5.97;;;12.10;99.90;;;;;;5066272;28;20072;-60
2022/05/15 06:16:09;;;;;;;28.52;5.57;;;12.10;99.90;;;;;;5046151;28;20465;-55
2022/05/15 06:18:36;;;;;;;31.30;6.43;;;12.20;99.90;;;;;;5048142;28;20056;-59
2022/05/15 06:21:02;;;;;;;32.05;6.22;;;12.30;99.90;;;;;;5052231;28;20036;-59
2022/05/15 06:23:27;;;;;;;30.10;5.03;;;12.40;99.90;;;;;;5066462;28;20058;-58
2022/05/15 06:25:53;;;;;;;27.42;5.15;;;12.50;99.90;;;;;;5066665;28;20209;-59
2022/05/15 06:28:19;;;;;;;30.48;5.88;;;12.50;99.90;;;;;;5049797;28;20474;-63
2022/05/15 06:30:45;;;;;;;28.50;5.60;;;12.50;99.90;;;;;;5066668;28;20056;-55
2022/05/15 06:33:10;;;;;;;29.90;5.78;;;12.60;99.90;;;;;;5066742;28;20117;-50
2022/05/15 06:35:36;;;;;;;36.47;6.05;;;12.70;99.90;;;;;;5066271;28;20499;-52
2022/05/15 06:38:07;;;;;;;37.47;6.25;;;12.70;99.90;;;;;;5066007;28;20048;-66
2022/05/15 06:40:33;;;;;;;28.27;6.07;;;12.80;99.90;;;;;;5065774;28;20040;-62
2022/05/15 06:43:00;;;;;;;23.80;5.47;;;12.90;99.90;;;;;;5049452;28;20048;-53
2022/05/15 06:45:27;;;;;;;33.25;5.70;;;13.30;99.90;;;;;;5066138;28;20048;-55
2022/05/15 06:47:53;;;;;;;29.58;6.13;;;13.70;99.90;;;;;;5066342;28;20387;-58
2022/05/15 06:50:19;;;;;;;28.25;6.85;;;14.10;99.90;;;;;;5064464;28;20052;-61
2022/05/15 06:52:44;;;;;;;36.35;6.03;;;14.40;99.90;;;;;;5066722;28;20044;-56
2022/05/15 06:55:20;;;;;;;22.08;5.20;;;14.50;99.90;;;;;;5053526;28;20445;-54
2022/05/15 06:57:50;;;;;;;32.35;5.72;;;14.60;99.90;;;;;;5045989;28;20128;-64
2022/05/15 07:00:27;;;;;;;;;;;14.60;99.90;;;;;;5037984;28;20047;-60
2022/05/15 07:02:53;;;;;;;31.55;6.20;;;14.70;99.90;;;;;;5044954;28;19925;-60
2022/05/15 07:05:27;;;;;;;26.60;6.47;;;14.70;99.90;;;;;;5047805;28;20116;-61
2022/05/15 07:07:54;;;;;;;36.22;6.93;;;14.70;99.90;;;;;;5045137;28;20049;-59
2022/05/15 07:10:21;;;;;;;32.55;6.20;;;14.80;99.90;;;;;;5047152;28;20120;-52
2022/05/15 07:12:48;;;;;;;24.10;5.55;;;14.90;99.90;;;;;;5039219;28;20044;-60
2022/05/15 07:15:14;;;;;;;27.17;6.50;;;15.20;99.90;;;;;;5064792;28;20046;-50
2022/05/15 07:17:40;;;;;;;25.85;5.57;;;15.50;99.90;;;;;;5064435;28;20041;-61
2022/05/15 07:20:07;;;;;;;23.30;5.20;;;15.80;99.90;;;;;;5047994;28;20086;-58
2022/05/15 07:22:33;;;;;;;26.52;5.97;;;16.10;99.90;;;;;;5066332;28;20055;-67
2022/05/15 07:25:00;;;;;;;25.23;6.35;;;16.30;96.80;;;;;;5064343;28;20478;-59
2022/05/15 07:27:27;;;;;;;31.85;6.40;;;16.20;99.90;;;;;;5049358;28;20048;-61
2022/05/15 07:29:52;;;;;;;33.35;6.95;;;16.00;99.90;;;;;;5064459;28;20044;-58
2022/05/15 07:32:18;;;;;;;27.73;7.32;;;16.10;99.90;;;;;;5065734;28;20057;-60
2022/05/15 07:34:44;;;;;;;24.85;6.70;;;16.10;99.90;;;;;;5064506;28;20044;-62
2022/05/15 07:37:17;;;;;;;27.20;6.13;;;16.30;99.70;;;;;;5063959;28;20055;-58
2022/05/15 07:39:43;;;;;;;29.35;6.38;;;16.30;98.40;;;;;;5047988;28;20037;-62
2022/05/15 07:42:10;;;;;;;31.30;6.57;;;16.30;99.90;;;;;;5047371;28;20090;-58
2022/05/15 07:44:35;;;;;;;28.35;5.60;;;16.30;98.30;;;;;;5064668;28;20063;-63
2022/05/15 07:47:01;;;;;;;24.90;4.90;;;16.40;96.50;;;;;;5047568;28;20767;-56
2022/05/15 07:49:27;;;;;;;24.67;5.65;;;16.40;98.80;;;;;;5065244;28;20079;-65
2022/05/15 07:51:53;;;;;;;25.63;5.88;;;16.60;97.50;;;;;;5047824;28;20049;-59
2022/05/15 07:54:19;;;;;;;21.52;5.35;;;16.80;94.30;;;;;;5066628;28;20127;-55
2022/05/15 07:56:45;;;;;;;26.17;5.93;;;17.00;96.50;;;;;;5047756;28;20098;-55
2022/05/15 07:59:12;;;;;;;26.95;6.18;;;17.20;90.50;;;;;;5064877;28;20399;-60
2022/05/15 08:01:38;;;;;;;28.90;5.70;;;17.30;83.80;;;;;;5066056;28;20040;-66
2022/05/15 08:04:05;;;;;;;23.42;5.72;;;17.20;91.10;;;;;;5064531;28;20483;-60
2022/05/15 08:09:15;;;;;;;24.73;5.95;;;17.10;94.00;;;;;;5065134;28;20084;-56
2022/05/15 08:11:41;;;;;;;24.88;5.07;;;17.50;86.60;;;;;;5065728;28;20076;-62
2022/05/15 08:14:08;;;;;;;27.73;5.70;;;17.70;89.20;;;;;;5081667;28;20505;-53
2022/05/15 08:16:36;;;;;;;21.88;5.05;;;17.60;85.40;;;;;;5063391;28;20060;-59
2022/05/15 08:24:38;;;;;;;16.95;3.80;;;17.80;68.70;;;;;;5064499;28;20399;-61
2022/05/15 08:27:04;;;;;;;16.45;3.85;;;17.90;75.00;;;;;;5048211;28;20112;-55
2022/05/15 08:29:31;;;;;;;19.35;4.00;;;17.90;66.00;;;;;;5063657;28;20044;-64
2022/05/15 08:31:58;;;;;;;13.98;4.10;;;17.90;65.20;;;;;;5065772;28;20123;-55
2022/05/15 08:34:24;;;;;;;16.63;3.28;;;18.10;67.40;;;;;;5047836;28;20048;-50
2022/05/15 08:36:51;;;;;;;13.43;3.70;;;18.40;62.60;;;;;;5064382;28;20648;-66
2022/05/15 08:39:18;;;;;;;13.73;3.45;;;18.40;55.50;;;;;;5064370;28;20067;-56
2022/05/15 08:42:11;;;;;;;12.25;3.47;;;18.10;46.20;;;;;;5065634;28;20123;-65
2022/05/15 08:44:43;;;;;;;13.85;3.05;;;18.00;48.50;;;;;;5064791;28;20137;-48
2022/05/15 08:47:40;;;;;;;14.27;3.40;;;17.90;51.60;;;;;;5064139;28;20056;-60
2022/05/15 08:50:14;;;;;;;9.18;2.70;;;18.20;65.30;;;;;;5064820;28;20052;-63
2022/05/15 08:53:02;;;;;;;13.88;2.75;;;18.20;42.90;;;;;;5063975;28;20136;-58
2022/05/15 08:55:44;;;;;;;9.13;2.50;;;18.10;51.40;;;;;;5047349;28;20041;-60
2022/05/15 08:58:36;;;;;;;12.35;2.85;;;18.20;38.30;;;;;;5066271;28;20139;-61
2022/05/15 09:01:05;;;;;;;10.90;2.88;;;18.00;33.90;;;;;;5077257;28;20052;-59
2022/05/15 09:03:38;;;;;;;12.80;3.17;;;18.20;59.00;;;;;;5064047;28;20119;-62
2022/05/15 09:06:22;;;;;;;9.90;3.00;;;18.30;51.80;;;;;;5063736;28;20060;-57
2022/05/15 09:09:07;;;;;;;9.65;2.55;;;18.40;40.90;;;;;;5062676;28;20056;-63
2022/05/15 09:11:47;;;;;;;5.93;2.20;;;18.40;42.50;;;;;;5062298;28;20102;-61
2022/05/15 09:14:24;;;;;;;9.10;2.20;;;18.50;27.20;;;;;;5066140;28;20044;-57
2022/05/15 09:16:57;;;;;;;4.75;1.73;;;18.60;32.00;;;;;;5066501;28;20122;-59
2022/05/15 09:19:23;;;;;;;3.70;1.35;;;18.50;23.20;;;;;;5067901;28;20112;-64
2022/05/15 09:21:56;;;;;;;9.18;2.20;;;18.50;23.20;;;;;;5065718;28;20510;-60
2022/05/15 09:24:41;;;;;;;6.72;1.73;;;18.50;20.80;;;;;;5069051;28;20044;-67
2022/05/15 09:27:17;;;;;;;5.80;1.80;;;18.40;21.20;;;;;;5066943;28;20131;-63
2022/05/15 09:29:54;;;;;;;6.70;2.35;;;18.30;26.10;;;;;;5066878;28;20044;-60
2022/05/15 09:32:36;;;;;;;6.32;2.00;;;18.40;40.80;;;;;;5040467;28;20040;-60
2022/05/15 09:35:04;;;;;;;7.95;2.25;;;18.30;26.20;;;;;;5046579;28;20045;-62
2022/05/15 09:43:36;;;;;;;5.80;2.10;;;18.80;28.80;;;;;;4998323;28;20401;-62
2022/05/15 09:46:18;;;;;;;7.95;1.85;;;18.60;25.70;;;;;;5025179;28;20155;-61
2022/05/15 09:49:11;;;;;;;5.10;1.92;;;18.50;33.80;;;;;;5048373;28;20078;-58
2022/05/15 09:51:46;;;;;;;6.13;1.65;;;18.70;26.40;;;;;;5047219;28;20045;-60
2022/05/15 09:54:49;;;;;;;3.60;1.60;;;18.90;24.20;;;;;;5065375;28;20128;-60
2022/05/15 09:57:28;;;;;;;6.15;1.98;;;19.20;34.10;;;;;;4986415;28;20425;-61
2022/05/15 10:00:00;;;;;;;8.65;2.08;;;19.20;23.60;;;;;;5038937;28;20140;-64
2022/05/15 10:02:42;;;;;;;5.50;2.08;;;19.20;25.00;;;;;;5061297;28;20056;-66
2022/05/15 10:05:14;;;;;;;9.48;2.42;;;18.90;24.60;;;;;;5066792;28;20075;-64
2022/05/15 10:07:46;;;;;;;6.07;2.42;;;18.80;25.70;;;;;;5063720;28;20057;-64
2022/05/15 10:10:17;;;;;;;5.30;2.00;;;18.80;26.30;;;;;;5048312;28;20102;-63
2022/05/15 10:12:46;;;;;;;6.25;2.00;;;19.10;34.90;;;;;;5030912;28;20049;-57
2022/05/15 10:15:12;;;;;;;8.82;2.60;;;19.10;27.80;;;;;;5047123;28;20049;-59
2022/05/15 10:17:54;;;;;;;5.90;2.28;;;19.20;26.80;;;;;;5046180;28;20061;-60
2022/05/15 10:20:22;;;;;;;10.18;2.70;;;19.20;25.10;;;;;;5047321;28;20186;-57
2022/05/15 10:23:12;;;;;;;6.50;2.33;;;19.20;26.00;;;;;;5047029;28;20036;-60
2022/05/15 10:26:00;;;;;;;7.50;2.17;;;19.10;24.20;;;;;;5046637;28;20059;-67
2022/05/15 10:28:44;;;;;;;6.07;2.30;;;19.10;26.60;;;;;;5048250;28;20832;-64
2022/05/15 10:31:22;;;;;;;6.53;2.25;;;19.10;21.50;;;;;;5054872;28;20041;-63
2022/05/15 10:33:56;;;;;;;8.60;2.45;;;19.10;23.10;;;;;;5083952;28;20501;-60
2022/05/15 10:37:01;;;;;;;9.73;2.78;;;19.10;22.90;;;;;;5066621;28;20060;-64
2022/05/15 10:39:45;;;;;;;10.02;2.85;;;19.10;22.70;;;;;;5065626;28;20494;-60
2022/05/15 10:42:19;;;;;;;13.55;3.05;;;19.10;21.20;;;;;;5066644;28;20545;-57
2022/05/15 10:45:15;;;;;;;9.35;2.60;;;19.20;21.40;;;;;;5029859;28;20045;-57
2022/05/15 10:48:03;;;;;;;8.10;2.60;;;19.20;23.00;;;;;;5029466;28;20045;-59
2022/05/15 10:50:48;;;;;;;9.60;2.80;;;19.30;20.60;;;;;;5046794;28;20048;-62
2022/05/15 10:59:41;;;;;;;7.40;2.83;;;19.10;21.90;;;;;;5046819;28;20048;-62
2022/05/15 11:02:44;;;;;;;9.38;2.72;;;19.10;17.10;;;;;;5056939;28;20063;-62
2022/05/15 11:05:21;;;;;;;9.27;2.55;;;18.90;14.40;;;;;;5066260;28;20037;-59
2022/05/15 11:08:24;;;;;;;9.88;2.78;;;18.80;22.90;;;;;;5083385;28;20435;-59
2022/05/15 11:11:03;;;;;;;8.63;2.78;;;18.80;17.60;;;;;;5065935;28;20048;-57
2022/05/15 11:13:52;;;;;;;12.60;3.15;;;18.80;16.60;;;;;;5082496;28;20044;-65
2022/05/15 11:16:50;;;;;;;8.23;2.67;;;18.80;16.00;;;;;;5083684;28;20049;-64
2022/05/15 11:19:18;;;;;;;8.82;2.55;;;18.80;22.10;;;;;;5086915;28;20056;-63
2022/05/15 11:21:59;;;;;;;11.32;3.10;;;18.90;19.60;;;;;;5068922;28;20110;-61
2022/05/15 11:24:50;;;;;;;14.35;3.05;;;18.80;21.90;;;;;;5052770;28;20139;-56
2022/05/15 11:27:18;;;;;;;9.48;2.80;;;18.90;24.60;;;;;;5068334;28;20040;-65
2022/05/15 11:29:49;;;;;;;12.90;3.13;;;19.00;24.40;;;;;;5051818;28;20050;-63
2022/05/15 11:32:39;;;;;;;16.10;3.65;;;18.70;39.30;;;;;;5051382;28;20177;-67
2022/05/15 11:35:16;;;;;;;8.75;2.83;;;18.50;50.00;;;;;;5068013;28;20047;-65
2022/05/15 11:37:55;;;;;;;10.77;3.25;;;18.30;41.40;;;;;;5068672;28;20059;-58
2022/05/15 11:40:40;;;;;;;7.80;3.15;;;17.90;47.10;;;;;;5068397;28;20048;-61
2022/05/15 11:43:57;;;;;;;13.30;3.40;;;17.90;46.00;;;;;;5067804;28;20601;-57
2022/05/15 11:46:46;;;;;;;7.85;2.78;;;18.10;40.00;;;;;;5043626;28;20509;-65
2022/05/15 11:49:35;;;;;;;9.65;3.10;;;18.50;37.80;;;;;;5051061;28;20055;-58
2022/05/15 11:52:03;;;;;;;9.18;2.85;;;18.50;29.30;;;;;;5067477;28;20092;-58
2022/05/15 11:54:41;;;;;;;9.70;3.40;;;18.40;34.60;;;;;;5068751;28;20044;-58
2022/05/15 11:57:29;;;;;;;10.73;3.53;;;18.30;50.20;;;;;;5067775;28;20657;-66
2022/05/15 11:59:58;;;;;;;10.88;3.42;;;18.40;51.40;;;;;;5051758;28;20087;-66
2022/05/15 12:02:27;;;;;;;;;;;18.50;55.70;;;;;;5051629;28;20142;-62
2022/05/15 12:04:59;;;;;;;10.25;3.13;;;18.40;58.30;;;;;;5068183;28;19920;-60
2022/05/15 12:07:33;;;;;;;11.27;3.45;;;18.40;56.40;;;;;;5051284;28;20036;-58
2022/05/15 12:09:58;;;;;;;15.05;3.20;;;18.30;53.40;;;;;;5067641;28;20059;-62
2022/05/15 12:12:24;;;;;;;12.43;3.20;;;18.30;55.20;;;;;;5068537;28;20044;-58
2022/05/15 12:15:18;;;;;;;12.63;3.08;;;18.40;65.10;;;;;;5051281;28;20510;-57
2022/05/15 12:17:49;;;;;;;10.85;3.35;;;18.40;54.00;;;;;;5047732;28;20049;-61
2022/05/15 12:20:19;;;;;;;8.05;3.20;;;18.40;52.00;;;;;;5066005;28;20108;-58
2022/05/15 12:22:52;;;;;;;9.98;3.40;;;18.50;62.70;;;;;;5064473;28;20055;-59
2022/05/15 12:25:26;;;;;;;14.45;4.55;;;18.50;57.60;;;;;;5066100;28;20060;-60
2022/05/15 12:30:54;;;;;;;12.25;3.53;;;18.50;49.50;;;;;;5065483;28;20453;-63
2022/05/15 12:33:26;;;;;;;12.60;3.28;;;18.40;45.10;;;;;;5063800;28;20146;-62
2022/05/15 12:35:53;;;;;;;16.30;3.33;;;18.30;45.30;;;;;;5064077;28;20041;-60
2022/05/15 12:38:22;;;;;;;11.60;3.25;;;18.40;51.60;;;;;;5081478;28;20410;-69
2022/05/15 12:41:02;;;;;;;12.05;3.78;;;18.30;55.50;;;;;;5081463;28;20123;-59
2022/05/15 12:43:33;;;;;;;13.77;3.65;;;18.40;61.90;;;;;;5080757;28;20055;-58
2022/05/15 12:46:00;;;;;;;12.70;3.28;;;18.40;58.30;;;;;;5079463;28;20052;-68
2022/05/15 12:48:28;;;;;;;13.07;3.75;;;18.20;69.30;;;;;;5065636;28;20033;-58
2022/05/15 12:51:03;;;;;;;11.48;3.72;;;18.40;70.70;;;;;;5070552;28;20098;-57
2022/05/15 12:53:43;;;;;;;11.50;3.28;;;18.60;55.60;;;;;;5084752;28;20155;-61
2022/05/15 12:56:15;;;;;;;8.98;3.30;;;18.70;54.40;;;;;;5085433;28;20053;-64
2022/05/15 12:58:41;;;;;;;14.02;3.97;;;18.80;52.20;;;;;;5067884;28;20058;-59
2022/05/15 13:01:10;;;;;;;11.82;2.97;;;18.80;64.50;;;;;;5068634;28;20514;-62
2022/05/15 13:03:39;;;;;;;11.07;3.22;;;18.90;55.80;;;;;;5051909;28;20059;-62
2022/05/15 13:06:07;;;;;;;;;;;19.00;52.30;;;;;;5085192;28;20419;-58
2022/05/15 13:08:56;;;;;;;10.93;3.33;;;19.20;51.50;;;;;;5068881;28;19928;-61
2022/05/15 13:11:25;;;;;;;;;;;19.30;51.10;;;;;;5067509;28;20070;-67
2022/05/15 13:13:57;;;;;;;8.23;3.30;;;19.50;52.60;;;;;;5051246;28;19930;-64
2022/05/15 13:16:27;;;;;;;9.98;3.28;;;19.60;54.60;;;;;;5053626;28;20460;-67
2022/05/15 13:18:53;;;;;;;10.82;3.38;;;19.70;41.30;;;;;;5089202;28;20097;-59
2022/05/15 13:21:31;;;;;;;11.82;3.35;;;19.50;38.50;;;;;;5071237;28;20052;-65
2022/05/15 13:23:57;;;;;;;11.70;3.00;;;19.40;45.80;;;;;;5070938;28;20071;-59
2022/05/15 13:26:28;;;;;;;8.15;2.78;;;19.40;47.60;;;;;;5088357;28;20402;-57
2022/05/15 13:28:59;;;;;;;8.13;2.78;;;19.30;26.00;;;;;;5071085;28;20047;-67
2022/05/15 13:31:26;;;;;;;7.57;2.85;;;19.20;25.20;;;;;;5087779;28;20040;-59